Time;durP1;ratioP1;P1;durP2;ratioP2;P2;SDS_P1;SDS_P2;PMS_P1;PMS_P2;Temp;Humidity;BMP_temperature;BMP_pressure;BME280_temperature;BME280_humidity;BME280_pressure;Samples;Min_cycle;Max_cycle;Signal;HPM_P1;HPM_P2
2021/09/29 00:00:48;;;;;;;16.25;5.78;;;;;;;19.20;48.68;102479.44;1768605;80;21001;-49
2021/09/29 00:03:15;;;;;;;10.70;5.22;;;;;;;19.20;48.74;102462.28;1769703;80;21491;-48
2021/09/29 00:05:42;;;;;;;12.37;4.70;;;;;;;19.20;48.66;102468.00;1768635;80;21057;-50
2021/09/29 00:08:10;;;;;;;9.65;5.03;;;;;;;19.19;48.73;102471.09;1765962;80;20973;-48
2021/09/29 00:10:40;;;;;;;13.30;5.35;;;;;;;19.19;49.02;102463.17;1765529;80;21018;-50
2021/09/29 00:13:09;;;;;;;11.03;4.45;;;;;;;19.19;49.25;102462.30;1766238;80;21018;-49
2021/09/29 00:15:35;;;;;;;12.68;5.40;;;;;;;19.17;49.43;102459.72;1776066;80;20986;-49
2021/09/29 00:18:02;;;;;;;13.18;4.80;;;;;;;19.13;49.52;102459.41;1767214;80;21073;-49
2021/09/29 00:20:30;;;;;;;16.35;5.58;;;;;;;19.11;49.57;102459.91;1771867;80;21533;-49
2021/09/29 00:22:56;;;;;;;12.88;5.28;;;;;;;19.10;49.48;102462.12;1764426;80;21005;-48
2021/09/29 00:25:23;;;;;;;9.13;4.65;;;;;;;19.09;49.55;102460.41;1767110;80;21018;-49
2021/09/29 00:27:49;;;;;;;12.82;5.12;;;;;;;19.09;49.44;102461.73;1768689;80;21049;-46
2021/09/29 00:30:16;;;;;;;10.35;5.10;;;;;;;19.10;49.38;102461.28;1768747;80;21470;-49
2021/09/29 00:32:43;;;;;;;11.83;4.58;;;;;;;19.12;49.51;102464.73;1769246;80;21018;-47
2021/09/29 00:35:13;;;;;;;10.38;4.87;;;;;;;19.12;49.71;102462.09;1769164;80;20952;-46
2021/09/29 00:37:40;;;;;;;12.40;5.12;;;;;;;19.13;49.96;102462.04;1768108;80;21557;-47
2021/09/29 00:40:08;;;;;;;12.30;5.78;;;;;;;19.16;50.06;102459.77;1765909;80;20986;-46
2021/09/29 00:42:36;;;;;;;14.68;4.97;;;;;;;19.17;50.03;102458.84;1765660;80;20986;-46
2021/09/29 00:45:05;;;;;;;11.22;5.45;;;;;;;19.15;50.03;102454.94;1770247;80;21517;-49
2021/09/29 00:47:32;;;;;;;9.18;4.72;;;;;;;19.13;50.06;102459.41;1765981;80;20997;-49
2021/09/29 00:50:00;;;;;;;10.88;5.33;;;;;;;19.13;50.17;102459.41;1767487;80;20981;-47
2021/09/29 00:52:27;;;;;;;16.40;6.30;;;;;;;19.11;50.33;102466.50;1769150;80;21021;-46
2021/09/29 00:54:54;;;;;;;13.98;5.15;;;;;;;19.09;50.47;102463.05;1769206;80;20993;-51
2021/09/29 00:57:21;;;;;;;17.60;5.35;;;;;;;19.08;50.51;102467.90;1768941;80;21437;-50
2021/09/29 00:59:48;;;;;;;11.53;5.67;;;;;;;19.08;50.55;102467.90;1771145;80;21088;-51
2021/09/29 01:02:15;;;;;;;15.43;5.92;;;;;;;19.08;50.57;102465.26;1768685;80;21058;-49
2021/09/29 01:04:43;;;;;;;10.05;4.87;;;;;;;19.08;50.59;102469.22;1748504;80;21026;-49
2021/09/29 01:07:29;;;;;;;11.95;5.85;;;;;;;19.11;50.56;102470.91;1771938;80;21532;-45
2021/09/29 01:10:22;;;;;;;12.07;5.67;;;;;;;19.14;50.35;102472.15;1776798;80;21068;-51
2021/09/29 01:13:06;;;;;;;13.78;5.28;;;;;;;19.14;50.20;102471.70;1775837;80;21521;-50
2021/09/29 01:15:41;;;;;;;13.28;5.80;;;;;;;19.17;50.22;102474.23;1669514;86;21101;-52
2021/09/29 01:18:09;;;;;;;13.48;5.85;;;;;;;19.19;50.11;102464.49;1668302;86;21046;-51
2021/09/29 01:20:50;;;;;;;14.03;6.28;;;;;;;19.20;50.01;102459.64;1669081;86;21489;-48
2021/09/29 01:23:40;;;;;;;15.45;5.33;;;;;;;19.23;50.15;102468.77;1669172;86;21092;-48
2021/09/29 01:26:15;;;;;;;13.85;5.17;;;;;;;19.21;50.45;102469.27;1666240;86;21006;-49
2021/09/29 01:28:52;;;;;;;10.10;5.67;;;;;;;19.20;50.65;102474.60;1600776;89;21074;-51
2021/09/29 01:31:20;;;;;;;11.90;5.28;;;;;;;19.17;50.70;102474.23;1554101;92;21190;-51
2021/09/29 01:33:47;;;;;;;11.60;5.58;;;;;;;19.13;50.66;102475.23;1554300;92;21050;-48
2021/09/29 01:36:15;;;;;;;15.25;6.10;;;;;;;19.10;50.75;102473.99;1553989;92;21158;-51
2021/09/29 01:38:43;;;;;;;13.05;5.78;;;;;;;19.08;50.84;102478.45;1521512;92;21138;-49
2021/09/29 01:41:09;;;;;;;13.30;6.00;;;;;;;19.09;50.89;102480.64;1553534;92;21570;-47
2021/09/29 01:43:36;;;;;;;13.60;5.65;;;;;;;19.09;50.84;102481.52;1554596;92;21084;-46
2021/09/29 01:46:05;;;;;;;19.75;5.55;;;;;;;19.07;50.86;102482.02;1555246;92;21082;-50
2021/09/29 01:48:32;;;;;;;19.32;6.62;;;;;;;19.06;50.90;102481.59;1550905;92;21095;-48
2021/09/29 01:50:59;;;;;;;19.00;6.28;;;;;;;19.05;50.98;102487.80;1555262;92;21559;-49
2021/09/29 01:53:31;;;;;;;9.90;5.15;;;;;;;19.03;51.05;102486.98;1607851;87;21021;-49
2021/09/29 01:55:58;;;;;;;13.75;5.42;;;;;;;19.00;51.08;102491.01;1614224;88;21095;-49
2021/09/29 01:58:24;;;;;;;12.13;5.33;;;;;;;18.95;51.18;102495.57;1605080;89;21068;-49
2021/09/29 02:00:51;;;;;;;10.70;5.47;;;;;;;18.92;51.38;102493.48;1606966;89;21071;-46
2021/09/29 02:03:21;;;;;;;12.60;5.33;;;;;;;18.92;51.67;102491.69;1605364;89;21108;-48
2021/09/29 02:05:49;;;;;;;17.82;5.97;;;;;;;18.94;51.77;102499.58;1605542;89;21108;-49
2021/09/29 02:08:16;;;;;;;15.08;6.72;;;;;;;18.93;51.58;102496.07;1604767;89;21071;-47
2021/09/29 02:10:44;;;;;;;16.60;6.62;;;;;;;18.90;51.26;102501.90;1603593;89;21668;-49
2021/09/29 02:13:12;;;;;;;13.43;6.45;;;;;;;18.82;51.29;102498.14;1603369;89;21087;-49
2021/09/29 02:15:39;;;;;;;17.67;6.58;;;;;;;18.75;51.31;102498.36;1606424;89;21063;-49
2021/09/29 02:18:05;;;;;;;16.67;6.80;;;;;;;18.68;51.53;102502.94;1609587;89;21531;-48
2021/09/29 02:20:32;;;;;;;15.78;5.90;;;;;;;18.63;51.64;102504.82;1605284;89;21524;-49
2021/09/29 02:22:59;;;;;;;20.52;6.65;;;;;;;18.57;51.88;102506.30;1604695;89;21047;-46
2021/09/29 02:25:26;;;;;;;14.13;6.55;;;;;;;18.55;51.98;102514.71;1611526;88;21122;-49
2021/09/29 02:27:53;;;;;;;13.25;6.22;;;;;;;18.53;51.89;102509.49;1657094;83;20995;-49
2021/09/29 02:30:22;;;;;;;13.80;6.03;;;;;;;18.53;51.88;102523.98;1718677;83;21494;-46
2021/09/29 02:32:48;;;;;;;15.70;5.75;;;;;;;18.55;51.66;102516.91;1771353;80;21052;-49
2021/09/29 02:35:14;;;;;;;20.68;6.90;;;;;;;18.55;51.70;102521.30;1772792;80;21520;-48
2021/09/29 02:37:42;;;;;;;16.48;6.05;;;;;;;18.55;51.66;102525.26;1773083;80;21461;-49
2021/09/29 02:40:09;;;;;;;17.70;7.03;;;;;;;18.57;51.55;102528.72;1773685;80;21002;-49
2021/09/29 02:42:36;;;;;;;15.95;6.90;;;;;;;18.56;51.56;102533.59;1772752;80;21013;-46
2021/09/29 02:45:04;;;;;;;17.37;6.08;;;;;;;18.54;51.34;102534.09;1776398;80;21505;-50
2021/09/29 02:47:31;;;;;;;20.72;6.92;;;;;;;18.51;51.49;102535.03;1770478;80;21445;-46
2021/09/29 02:49:58;;;;;;;12.68;6.65;;;;;;;18.50;51.41;102532.44;1766112;80;20985;-49
2021/09/29 02:52:25;;;;;;;16.15;7.25;;;;;;;18.49;51.34;102531.56;1773075;80;21457;-48
2021/09/29 02:54:51;;;;;;;23.42;7.47;;;;;;;18.49;51.31;102534.20;1772900;80;21045;-47
2021/09/29 02:57:18;;;;;;;22.17;6.50;;;;;;;18.48;51.16;102531.62;1773702;80;21061;-49
2021/09/29 02:59:45;;;;;;;16.52;6.65;;;;;;;18.45;51.02;102531.69;1773156;80;21068;-49
2021/09/29 03:02:12;;;;;;;16.07;7.03;;;;;;;18.41;51.01;102536.59;1772782;80;21018;-49
2021/09/29 03:04:38;;;;;;;25.48;7.70;;;;;;;18.40;51.07;102536.20;1771184;80;20975;-49
2021/09/29 03:07:07;;;;;;;16.85;7.65;;;;;;;18.40;51.07;102536.20;1776535;80;21037;-49
2021/09/29 03:09:35;;;;;;;21.60;7.95;;;;;;;18.40;51.04;102537.03;1766628;80;21557;-49
2021/09/29 03:12:03;;;;;;;14.53;7.85;;;;;;;18.41;51.04;102536.59;1769307;80;20990;-50
2021/09/29 03:14:30;;;;;;;18.05;7.60;;;;;;;18.42;51.16;102543.61;1769333;80;21400;-49
2021/09/29 03:16:57;;;;;;;16.82;7.55;;;;;;;18.40;51.20;102538.35;1769031;80;20997;-49
2021/09/29 03:19:24;;;;;;;16.15;6.53;;;;;;;18.41;51.12;102543.18;1769374;80;21489;-49
2021/09/29 03:21:51;;;;;;;17.48;7.20;;;;;;;18.42;50.96;102540.49;1768694;80;21450;-50
2021/09/29 03:24:19;;;;;;;24.65;7.12;;;;;;;18.40;50.86;102538.83;1766249;80;21010;-50
2021/09/29 03:26:48;;;;;;;17.27;7.70;;;;;;;18.39;50.87;102535.77;1765892;80;21012;-49
2021/09/29 03:29:16;;;;;;;13.68;6.97;;;;;;;18.41;50.80;102535.27;1767126;80;21012;-47
2021/09/29 03:31:42;;;;;;;26.90;7.28;;;;;;;18.34;50.63;102536.35;1768607;80;21538;-50
2021/09/29 03:34:09;;;;;;;20.70;8.18;;;;;;;18.30;50.84;102539.50;1766885;80;21061;-50
2021/09/29 03:36:36;;;;;;;16.35;6.78;;;;;;;18.25;50.78;102537.89;1771165;80;21382;-51
2021/09/29 03:39:03;;;;;;;18.67;7.42;;;;;;;18.16;50.94;102539.42;1763544;80;21020;-49
2021/09/29 03:41:31;;;;;;;17.82;6.22;;;;;;;18.09;51.02;102539.19;1767128;80;21009;-47
2021/09/29 03:43:57;;;;;;;15.55;6.58;;;;;;;18.05;51.18;102540.16;1769201;80;21025;-50
2021/09/29 03:46:24;;;;;;;19.42;7.17;;;;;;;17.99;51.26;102539.00;1775190;80;20995;-50
2021/09/29 03:48:50;;;;;;;20.12;7.62;;;;;;;17.95;51.48;102537.34;1766760;80;21450;-47
2021/09/29 03:51:17;;;;;;;16.32;6.83;;;;;;;17.93;51.60;102544.41;1765603;80;21013;-47
2021/09/29 03:53:43;;;;;;;16.35;7.62;;;;;;;17.91;51.69;102546.22;1767495;80;20981;-48
2021/09/29 03:56:10;;;;;;;21.40;7.10;;;;;;;17.87;51.83;102548.03;1768253;80;21533;-50
2021/09/29 03:58:38;;;;;;;16.82;7.40;;;;;;;17.83;51.88;102544.62;1766960;80;21501;-48
2021/09/29 04:01:04;;;;;;;14.47;6.70;;;;;;;17.79;51.93;102545.59;1779457;80;21045;-47
2021/09/29 04:03:31;;;;;;;16.87;6.50;;;;;;;17.78;52.04;102544.32;1765849;80;21041;-49
2021/09/29 04:05:58;;;;;;;14.00;7.20;;;;;;;17.74;52.04;102550.08;1767140;80;21080;-50
2021/09/29 04:08:25;;;;;;;17.60;7.30;;;;;;;17.70;52.04;102543.63;1768413;80;21495;-47
2021/09/29 04:10:55;;;;;;;17.90;6.55;;;;;;;17.64;52.12;102543.30;1766581;80;21026;-49
2021/09/29 04:13:21;;;;;;;21.77;7.30;;;;;;;17.62;52.32;102545.10;1766645;80;21509;-49
2021/09/29 04:15:49;;;;;;;19.55;6.92;;;;;;;17.59;52.33;102543.88;1765819;80;21071;-50
2021/09/29 04:18:17;;;;;;;14.73;6.37;;;;;;;17.58;52.46;102551.78;1766814;80;21028;-49
2021/09/29 04:20:43;;;;;;;16.67;7.17;;;;;;;17.56;52.38;102552.27;1768961;80;21001;-49
2021/09/29 04:23:10;;;;;;;20.20;7.85;;;;;;;17.54;52.33;102550.12;1779330;80;21010;-49
2021/09/29 04:25:39;;;;;;;23.62;7.22;;;;;;;17.54;52.52;102554.94;1777183;80;21021;-49
2021/09/29 04:28:05;;;;;;;20.68;7.70;;;;;;;17.53;52.53;102557.17;1768574;80;21030;-47
2021/09/29 04:30:32;;;;;;;23.50;7.50;;;;;;;17.54;52.51;102561.52;1774200;80;21467;-49
2021/09/29 04:33:00;;;;;;;13.68;6.60;;;;;;;17.53;52.55;102559.80;1769257;80;20970;-49
2021/09/29 04:35:27;;;;;;;21.55;7.35;;;;;;;17.52;52.66;102562.45;1768771;80;20999;-50
2021/09/29 04:37:54;;;;;;;17.65;6.75;;;;;;;17.51;52.80;102557.66;1766881;80;20946;-47
2021/09/29 04:40:20;;;;;;;16.05;7.22;;;;;;;17.54;52.95;102567.23;1766045;80;21009;-49
2021/09/29 04:42:48;;;;;;;15.30;7.50;;;;;;;17.54;53.01;102554.94;1766967;80;21033;-49
2021/09/29 04:45:14;;;;;;;11.33;6.42;;;;;;;17.57;52.97;102562.78;1769236;80;21025;-48
2021/09/29 04:47:41;;;;;;;20.20;7.72;;;;;;;17.58;53.06;102561.87;1765763;80;21516;-47
2021/09/29 04:50:09;;;;;;;20.52;7.67;;;;;;;17.61;53.09;102559.63;1765866;80;21052;-50
2021/09/29 04:52:36;;;;;;;19.87;7.78;;;;;;;17.62;53.13;102562.22;1768162;80;20998;-47
2021/09/29 04:55:04;;;;;;;20.72;7.92;;;;;;;17.64;53.08;102565.67;1769166;80;21064;-49
2021/09/29 04:57:32;;;;;;;15.53;7.37;;;;;;;17.65;52.90;102566.11;1769108;80;21029;-49
2021/09/29 04:59:59;;;;;;;17.17;6.90;;;;;;;17.68;52.65;102573.92;1776903;80;21470;-50
2021/09/29 05:02:26;;;;;;;18.85;8.55;;;;;;;17.69;52.59;102569.09;1765881;80;21013;-47
2021/09/29 05:04:53;;;;;;;17.27;7.30;;;;;;;17.71;52.62;102577.81;1716128;82;20974;-49
2021/09/29 05:07:20;;;;;;;18.90;7.35;;;;;;;17.72;52.67;102574.27;1769293;80;21037;-49
2021/09/29 05:09:50;;;;;;;18.15;7.87;;;;;;;17.72;52.80;102580.01;1768840;80;21001;-50
2021/09/29 05:12:32;;;;;;;16.15;7.47;;;;;;;17.70;52.82;102587.91;1772065;80;21022;-46
2021/09/29 05:14:58;;;;;;;18.48;7.75;;;;;;;17.66;52.86;102588.89;1783664;80;21540;-49
2021/09/29 05:17:25;;;;;;;20.60;7.75;;;;;;;17.63;52.86;102587.66;1770973;80;21062;-47
2021/09/29 05:19:53;;;;;;;15.35;7.60;;;;;;;17.63;52.92;102582.39;1767305;80;21088;-48
2021/09/29 05:22:19;;;;;;;20.02;7.95;;;;;;;17.63;53.00;102585.02;1774590;80;21021;-50
2021/09/29 05:24:46;;;;;;;16.42;8.05;;;;;;;17.64;53.10;102590.69;1774330;80;21541;-52
2021/09/29 05:27:13;;;;;;;13.80;7.42;;;;;;;17.63;53.25;102588.09;1777727;80;21545;-50
2021/09/29 05:29:42;;;;;;;14.20;8.68;;;;;;;17.63;53.52;102591.61;1774184;80;21042;-50
2021/09/29 05:32:08;;;;;;;21.20;7.22;;;;;;;17.65;53.52;102597.70;1782817;80;20973;-50
2021/09/29 05:34:36;;;;;;;17.40;7.97;;;;;;;17.68;53.26;102598.09;1773900;80;21046;-47
2021/09/29 05:37:04;;;;;;;19.12;7.37;;;;;;;17.69;53.25;102599.36;1771380;80;21009;-51
2021/09/29 05:39:31;;;;;;;16.23;8.43;;;;;;;17.72;53.42;102603.23;1771566;80;21001;-48
2021/09/29 05:41:57;;;;;;;19.23;8.08;;;;;;;17.73;53.44;102606.30;1774545;80;20970;-51
2021/09/29 05:44:24;;;;;;;10.78;7.58;;;;;;;17.76;53.43;102608.84;1774286;80;21014;-50
2021/09/29 05:46:51;;;;;;;19.20;8.20;;;;;;;17.78;53.44;102607.04;1778825;80;21005;-51
2021/09/29 05:49:18;;;;;;;20.85;8.68;;;;;;;17.81;53.36;102614.02;1771914;80;21041;-50
2021/09/29 05:51:47;;;;;;;17.27;8.13;;;;;;;17.83;53.27;102610.45;1771330;80;21033;-50
2021/09/29 05:54:14;;;;;;;21.55;7.50;;;;;;;17.87;53.34;102613.43;1775583;80;21061;-50
2021/09/29 05:56:40;;;;;;;18.87;7.70;;;;;;;17.91;53.31;102613.37;1785058;80;21021;-47
2021/09/29 05:59:07;;;;;;;16.93;8.20;;;;;;;17.93;53.32;102617.69;1775421;80;21026;-49
2021/09/29 06:01:33;;;;;;;15.60;7.85;;;;;;;17.94;53.38;102620.75;1781808;80;21501;-50
2021/09/29 06:04:00;;;;;;;17.02;7.78;;;;;;;17.96;53.33;102623.34;1774254;80;21002;-50
2021/09/29 06:06:27;;;;;;;15.55;8.48;;;;;;;17.99;53.31;102625.92;1771791;80;21021;-50
2021/09/29 06:08:54;;;;;;;18.42;8.40;;;;;;;18.00;53.51;102621.05;1770816;80;21045;-50
2021/09/29 06:11:20;;;;;;;15.80;8.93;;;;;;;18.01;53.62;102611.78;1772600;80;21135;-47
2021/09/29 06:13:47;;;;;;;13.68;7.42;;;;;;;18.03;53.96;102619.23;1773478;80;21518;-48
2021/09/29 06:16:17;;;;;;;11.50;7.55;;;;;;;18.07;54.16;102614.75;1779257;80;21466;-51
2021/09/29 06:18:43;;;;;;;13.53;8.23;;;;;;;18.14;54.17;102622.91;1772281;80;20990;-47
2021/09/29 06:21:11;;;;;;;14.70;7.78;;;;;;;18.21;53.98;102627.14;1771091;80;21013;-50
2021/09/29 06:23:38;;;;;;;12.63;8.03;;;;;;;18.25;53.86;102625.73;1772270;80;21564;-51
2021/09/29 06:26:07;;;;;;;12.23;7.65;;;;;;;18.28;53.79;102627.42;1774236;80;21056;-50
2021/09/29 06:28:37;;;;;;;15.18;7.15;;;;;;;18.31;53.75;102627.34;1774024;80;20994;-50
2021/09/29 06:31:02;;;;;;;13.28;8.23;;;;;;;18.35;53.72;102635.58;1774474;80;21025;-51
2021/09/29 06:33:28;;;;;;;14.38;8.15;;;;;;;18.40;53.71;102635.03;1774478;80;21057;-50
2021/09/29 06:35:55;;;;;;;19.60;8.48;;;;;;;18.45;53.51;102640.63;1773904;80;21068;-50
2021/09/29 06:38:21;;;;;;;15.32;8.68;;;;;;;18.51;53.68;102639.60;1775695;80;20974;-50
2021/09/29 06:40:50;;;;;;;20.77;9.55;;;;;;;18.57;53.80;102640.33;1780507;80;21532;-50
2021/09/29 06:43:17;;;;;;;19.52;8.48;;;;;;;18.68;53.72;102641.38;1774721;80;20962;-48
2021/09/29 06:45:44;;;;;;;11.57;7.50;;;;;;;18.77;53.52;102642.47;1775112;80;21537;-50
2021/09/29 06:48:11;;;;;;;13.25;8.40;;;;;;;18.83;53.36;102642.31;1774015;80;20994;-47
2021/09/29 06:50:38;;;;;;;17.50;8.20;;;;;;;18.86;53.28;102646.17;1772195;80;21029;-48
2021/09/29 06:53:05;;;;;;;15.18;8.43;;;;;;;18.91;53.26;102646.93;1777119;80;20974;-49
2021/09/29 06:55:31;;;;;;;16.55;8.73;;;;;;;18.94;53.02;102647.31;1767736;80;21489;-47
2021/09/29 06:57:59;;;;;;;18.42;9.98;;;;;;;18.94;53.01;102645.52;1774584;80;21072;-50
2021/09/29 07:00:26;;;;;;;17.10;8.75;;;;;;;18.98;53.08;102648.48;1784936;80;21463;-50
2021/09/29 07:02:53;;;;;;;16.57;8.43;;;;;;;19.02;52.91;102654.09;1772500;80;20989;-48
2021/09/29 07:05:19;;;;;;;16.48;8.83;;;;;;;19.03;52.82;102655.83;1770536;80;21045;-50
2021/09/29 07:07:46;;;;;;;15.05;8.95;;;;;;;19.04;52.78;102657.55;1771410;80;21033;-47
2021/09/29 07:10:15;;;;;;;18.67;9.10;;;;;;;19.06;52.73;102656.21;1778451;80;21487;-50
2021/09/29 07:12:43;;;;;;;12.73;8.38;;;;;;;19.07;52.79;102650.89;1763321;80;21001;-50
2021/09/29 07:15:11;;;;;;;23.45;8.78;;;;;;;19.10;52.51;102657.38;1780425;80;20975;-50
2021/09/29 07:17:40;;;;;;;14.63;8.50;;;;;;;19.13;52.41;102656.44;1765754;80;21017;-50
2021/09/29 07:22:39;;;;;;;15.00;8.45;;;;;;;19.18;52.56;102662.47;1729387;83;20998;-50
2021/09/29 07:25:07;;;;;;;13.93;7.58;;;;;;;19.20;52.61;102661.53;1729829;83;21029;-48
2021/09/29 07:27:34;;;;;;;18.30;7.90;;;;;;;19.24;52.44;102662.30;1729962;83;21013;-50
2021/09/29 07:30:01;;;;;;;17.77;8.25;;;;;;;19.25;52.43;102667.53;1729768;83;21037;-52
2021/09/29 07:32:27;;;;;;;17.67;8.53;;;;;;;19.29;52.36;102659.94;1729669;83;21083;-50
2021/09/29 07:34:54;;;;;;;13.45;7.72;;;;;;;19.32;52.21;102666.47;1729903;83;21517;-47
2021/09/29 07:37:20;;;;;;;12.63;7.42;;;;;;;19.34;52.35;102662.49;1729658;83;21049;-50
2021/09/29 07:39:48;;;;;;;15.43;7.72;;;;;;;19.37;52.13;102669.86;1729935;83;21549;-49
2021/09/29 07:42:14;;;;;;;18.32;8.00;;;;;;;19.38;52.17;102674.25;1729432;83;21017;-50
2021/09/29 07:44:41;;;;;;;14.40;7.75;;;;;;;19.40;52.01;102672.43;1729960;83;21033;-48
2021/09/29 07:47:08;;;;;;;17.48;8.18;;;;;;;19.41;51.87;102664.91;1729674;83;21037;-50
2021/09/29 07:49:35;;;;;;;12.53;7.80;;;;;;;19.41;52.08;102663.59;1729846;83;21056;-48
2021/09/29 07:52:04;;;;;;;14.10;7.30;;;;;;;19.45;52.32;102667.87;1729736;83;21553;-50
2021/09/29 07:54:30;;;;;;;14.90;8.20;;;;;;;19.51;52.07;102674.77;1729979;83;21044;-47
2021/09/29 07:56:57;;;;;;;13.28;7.65;;;;;;;19.56;52.09;102672.01;1729581;83;21097;-48
2021/09/29 07:59:24;;;;;;;14.23;7.75;;;;;;;19.58;52.09;102668.87;1730008;83;21423;-51
2021/09/29 08:01:52;;;;;;;12.37;6.92;;;;;;;19.62;51.94;102666.06;1729926;83;21536;-48
2021/09/29 08:04:21;;;;;;;14.23;6.97;;;;;;;19.65;51.74;102657.20;1729664;83;21001;-49
2021/09/29 08:06:49;;;;;;;14.05;7.90;;;;;;;19.66;51.70;102662.91;1729229;83;21092;-48
2021/09/29 08:09:17;;;;;;;12.75;7.25;;;;;;;19.68;51.54;102661.09;1729665;83;21121;-48
2021/09/29 08:11:45;;;;;;;16.23;7.83;;;;;;;19.70;51.61;102667.19;1716733;83;21088;-48
2021/09/29 08:14:12;;;;;;;13.13;8.50;;;;;;;19.74;51.60;102664.38;1729865;83;20994;-48
2021/09/29 08:16:39;;;;;;;13.50;8.13;;;;;;;19.79;51.37;102666.89;1729529;83;21056;-50
2021/09/29 08:19:06;;;;;;;10.68;6.67;;;;;;;19.84;51.34;102659.71;1753011;80;21010;-48
2021/09/29 08:21:34;;;;;;;13.78;7.17;;;;;;;19.90;51.10;102668.77;1777316;80;21017;-47
2021/09/29 08:24:07;;;;;;;12.82;6.53;;;;;;;19.89;50.85;102665.70;1780655;80;21009;-52
2021/09/29 08:34:44;;;;;;;13.60;7.90;;;;;;;19.96;50.80;102661.98;1729426;83;21047;-50
2021/09/29 08:42:15;;;;;;;13.55;6.95;;;;;;;20.00;50.42;102655.69;1711870;83;21041;-50
2021/09/29 08:52:56;;;;;;;24.52;7.72;;;;;;;20.06;50.30;102661.66;1648733;86;21060;-51
2021/09/29 09:15:19;;;;;;;16.93;7.03;;;;;;;20.47;49.48;102668.30;1545013;92;21093;-50
2021/09/29 09:17:32;;;;;;;15.90;7.47;;;;;;;20.49;48.85;102671.76;1553655;92;21493;-52
2021/09/29 09:20:21;;;;;;;13.78;7.55;;;;;;;20.50;48.93;102666.02;1517262;94;21568;-50
2021/09/29 09:22:52;;;;;;;24.52;9.20;;;;;;;20.50;49.11;102665.57;1514243;95;21065;-47
2021/09/29 09:25:43;;;;;;;14.23;7.20;;;;;;;20.53;49.15;102669.87;1455720;98;21185;-50
2021/09/29 09:28:22;;;;;;;;;;;;;;;20.54;48.39;102669.84;1457279;98;21194;-47
2021/09/29 09:30:50;;;;;;;11.15;7.25;;;;;;;20.51;48.29;102667.28;1455010;98;20144;-47
2021/09/29 09:33:25;;;;;;;17.57;7.17;;;;;;;20.51;48.42;102671.25;1455235;98;21101;-49
2021/09/29 09:35:52;;;;;;;11.68;7.35;;;;;;;20.52;48.18;102674.31;1455249;98;21084;-47
2021/09/29 09:38:23;;;;;;;10.85;6.72;;;;;;;20.54;48.21;102674.26;1455253;97;21205;-47
2021/09/29 09:40:56;;;;;;;15.45;7.60;;;;;;;20.57;48.34;102676.78;1456730;97;21151;-50
2021/09/29 09:43:26;;;;;;;17.32;7.83;;;;;;;20.59;47.86;102677.59;1425357;101;21700;-47
2021/09/29 09:45:53;;;;;;;15.98;7.40;;;;;;;20.62;48.18;102687.64;1409334;100;21175;-52
2021/09/29 09:48:26;;;;;;;20.77;8.00;;;;;;;20.66;48.28;102687.95;1436390;98;21201;-47
2021/09/29 09:51:07;;;;;;;14.05;6.50;;;;;;;20.71;48.22;102688.64;1448563;97;21594;-49
2021/09/29 09:53:36;;;;;;;16.15;8.10;;;;;;;20.77;48.13;102683.14;1432254;98;21134;-51
2021/09/29 09:56:17;;;;;;;17.80;8.20;;;;;;;20.83;48.02;102692.23;1448646;98;21190;-52
2021/09/29 09:58:45;;;;;;;13.95;7.75;;;;;;;20.89;47.89;102694.66;1447326;98;21628;-51
2021/09/29 10:01:18;;;;;;;14.10;6.90;;;;;;;20.91;47.79;102688.86;1435330;100;21194;-47
2021/09/29 10:03:47;;;;;;;18.85;7.83;;;;;;;20.92;47.56;102690.58;1432296;99;21117;-51
2021/09/29 10:06:14;;;;;;;16.97;7.47;;;;;;;20.95;47.17;102693.58;1408391;100;21223;-48
2021/09/29 10:08:45;;;;;;;13.08;7.08;;;;;;;20.95;46.67;102689.61;1408835;100;21142;-49
2021/09/29 10:28:01;;;;;;;11.45;7.45;;;;;;;20.95;46.16;102677.25;1391732;99;21145;-47
2021/09/29 10:30:36;;;;;;;15.10;7.83;;;;;;;21.00;45.81;102673.97;1431417;99;21195;-47
2021/09/29 10:36:01;;;;;;;13.60;7.10;;;;;;;21.04;45.82;102674.30;1389639;102;21183;-49
2021/09/29 10:48:57;;;;;;;9.55;6.33;;;;;;;21.15;45.54;102667.31;1431429;98;21124;-47
2021/09/29 11:29:53;;;;;;;12.13;6.58;;;;;;;21.35;44.52;102657.34;1424835;100;21706;-51
2021/09/29 11:32:26;;;;;;;12.63;6.53;;;;;;;21.36;44.18;102661.70;1441570;97;21155;-49
2021/09/29 11:34:50;;;;;;;13.15;6.42;;;;;;;21.37;44.49;102664.29;1477830;97;21130;-50
2021/09/29 11:37:38;;;;;;;11.90;6.58;;;;;;;21.35;44.21;102667.94;1479632;97;21101;-53
2021/09/29 12:10:28;;;;;;;17.87;6.40;;;;;;;21.39;43.10;102658.95;1652179;84;21058;-47
2021/09/29 12:12:55;;;;;;;21.55;6.53;;;;;;;21.44;43.32;102664.94;1703076;83;21057;-50
2021/09/29 12:15:22;;;;;;;11.33;5.90;;;;;;;21.47;43.11;102666.16;1728587;83;21112;-52
2021/09/29 12:17:51;;;;;;;11.80;5.67;;;;;;;21.50;42.81;102661.60;1709134;84;21018;-51
2021/09/29 12:20:22;;;;;;;17.82;5.95;;;;;;;21.52;42.53;102665.51;1717127;83;21022;-47
2021/09/29 12:22:58;;;;;;;19.10;5.65;;;;;;;21.54;42.65;102664.55;1730580;83;21021;-47
2021/09/29 12:25:46;;;;;;;16.57;6.78;;;;;;;21.58;42.37;102667.93;1715402;83;20998;-51
2021/09/29 12:28:19;;;;;;;10.72;6.25;;;;;;;21.58;42.52;102670.13;1693734;84;21546;-50
2021/09/29 12:35:54;;;;;;;14.20;6.15;;;;;;;21.64;42.33;102662.41;1583653;90;21044;-47
2021/09/29 12:38:25;;;;;;;10.95;5.75;;;;;;;21.65;42.50;102660.17;1582144;90;21117;-48
2021/09/29 12:40:52;;;;;;;11.08;5.80;;;;;;;21.68;42.22;102665.34;1581690;90;21118;-50
2021/09/29 12:43:19;;;;;;;14.30;6.47;;;;;;;21.69;42.38;102659.13;1564838;90;21022;-52
2021/09/29 12:45:50;;;;;;;15.63;5.67;;;;;;;21.70;42.55;102662.20;1573583;90;21505;-47
2021/09/29 12:48:21;;;;;;;8.73;5.08;;;;;;;21.71;42.39;102661.26;1578320;90;21095;-48
2021/09/29 12:50:55;;;;;;;11.30;5.90;;;;;;;21.71;41.91;102659.48;1583821;90;21112;-51
2021/09/29 12:53:36;;;;;;;14.70;6.37;;;;;;;21.71;41.47;102662.13;1579065;90;21535;-50
2021/09/29 12:56:03;;;;;;;13.20;5.33;;;;;;;21.70;41.97;102659.55;1583859;90;21103;-50
2021/09/29 12:58:31;;;;;;;10.93;4.72;;;;;;;21.70;42.14;102659.55;1581928;90;21045;-52
2021/09/29 13:00:59;;;;;;;10.58;5.03;;;;;;;21.71;41.91;102655.96;1585822;90;21110;-48
2021/09/29 13:03:27;;;;;;;13.08;5.92;;;;;;;21.72;41.72;102653.73;1577414;90;21075;-50
2021/09/29 13:05:55;;;;;;;11.93;5.20;;;;;;;21.73;41.66;102654.98;1582618;90;21101;-50
2021/09/29 13:08:22;;;;;;;9.18;5.28;;;;;;;21.76;41.52;102655.34;1583455;90;21055;-47
2021/09/29 13:10:48;;;;;;;9.43;4.85;;;;;;;21.77;41.47;102652.63;1585201;90;21606;-50
2021/09/29 13:13:15;;;;;;;12.98;5.15;;;;;;;21.82;41.31;102653.33;1584038;90;21132;-49
2021/09/29 13:15:46;;;;;;;8.78;4.45;;;;;;;21.86;41.24;102652.77;1620312;88;21057;-46
2021/09/29 13:18:22;;;;;;;15.35;4.85;;;;;;;21.88;40.88;102652.70;1621758;88;21493;-47
2021/09/29 13:20:49;;;;;;;7.58;4.42;;;;;;;21.88;40.51;102656.22;1619037;88;21582;-51
2021/09/29 13:23:36;;;;;;;7.12;4.15;;;;;;;21.87;40.49;102651.83;1629687;86;21022;-47
2021/09/29 13:36:44;;;;;;;7.80;4.12;;;;;;;21.89;40.31;102649.98;1641362;84;21092;-47
2021/09/29 13:39:16;;;;;;;8.18;4.22;;;;;;;21.89;40.75;102649.98;1681990;84;21641;-51
2021/09/29 13:41:46;;;;;;;9.40;4.67;;;;;;;21.86;40.51;102647.47;1682732;84;21049;-48
2021/09/29 13:44:12;;;;;;;8.73;4.42;;;;;;;21.84;40.65;102641.36;1679875;85;21009;-47
2021/09/29 13:46:39;;;;;;;9.50;4.47;;;;;;;21.83;40.56;102637.84;1675876;84;21010;-47
2021/09/29 13:49:07;;;;;;;7.05;4.50;;;;;;;21.84;40.17;102644.02;1680326;84;21104;-48
2021/09/29 13:51:39;;;;;;;12.85;4.67;;;;;;;21.84;40.20;102644.02;1681851;84;21056;-46
2021/09/29 13:54:11;;;;;;;10.85;4.60;;;;;;;21.83;40.31;102644.92;1682955;84;20962;-51
2021/09/29 13:56:52;;;;;;;7.17;4.85;;;;;;;21.84;40.32;102643.52;1682670;84;21065;-51
2021/09/29 14:29:14;;;;;;;11.78;5.17;;;;;;;21.71;40.79;102655.51;1774423;80;21002;-48
2021/09/29 14:34:10;;;;;;;9.78;4.65;;;;;;;21.68;40.57;102656.94;1773964;80;21010;-50